Time;durP1;ratioP1;P1;durP2;ratioP2;P2;SDS_P1;SDS_P2;PMS_P1;PMS_P2;Temp;Humidity;BMP_temperature;BMP_pressure;BME280_temperature;BME280_humidity;BME280_pressure;Samples;Min_cycle;Max_cycle;Signal;HPM_P1;HPM_P2
2023/02/20 00:01:52;;;;;;;8.30;6.13;;;6.20;99.90;;;;;;5062511;28;20024;-43
2023/02/20 00:04:19;;;;;;;6.45;5.80;;;6.20;99.90;;;;;;5063544;28;20017;-42
2023/02/20 00:06:47;;;;;;;8.45;5.85;;;6.30;99.90;;;;;;5062997;28;20859;-43
2023/02/20 00:09:13;;;;;;;7.88;5.82;;;6.30;99.90;;;;;;5062977;28;20044;-43
2023/02/20 00:11:39;;;;;;;6.70;5.55;;;6.30;99.90;;;;;;5063548;28;20601;-43
2023/02/20 00:14:04;;;;;;;8.60;6.63;;;6.30;99.90;;;;;;5063698;28;20089;-42
2023/02/20 00:16:30;;;;;;;8.55;6.72;;;6.30;99.90;;;;;;5063439;28;20119;-42
2023/02/20 00:18:55;;;;;;;8.40;6.43;;;6.30;99.90;;;;;;5063073;28;20123;-42
2023/02/20 00:21:21;;;;;;;9.00;6.82;;;6.30;99.90;;;;;;5063176;28;20029;-42
2023/02/20 00:23:47;;;;;;;8.77;7.38;;;6.30;99.90;;;;;;5063249;28;20476;-43
2023/02/20 00:26:14;;;;;;;12.20;8.98;;;6.40;99.90;;;;;;5063326;28;20016;-42
2023/02/20 00:28:43;;;;;;;12.07;9.57;;;6.30;99.90;;;;;;5062528;28;20594;-42
2023/02/20 00:31:15;;;;;;;12.13;8.82;;;6.40;99.90;;;;;;5062789;28;20051;-44
2023/02/20 00:33:40;;;;;;;12.13;9.38;;;6.40;99.90;;;;;;5063208;28;20510;-42
2023/02/20 00:36:06;;;;;;;11.95;9.20;;;6.40;99.90;;;;;;5062399;28;20029;-42
2023/02/20 00:38:32;;;;;;;13.27;9.75;;;6.40;99.90;;;;;;5063788;28;20025;-42
2023/02/20 00:40:57;;;;;;;16.58;10.98;;;6.40;99.90;;;;;;5062436;28;20476;-42
2023/02/20 00:43:23;;;;;;;14.85;10.43;;;6.40;99.90;;;;;;5062332;28;20115;-42
2023/02/20 00:45:48;;;;;;;13.50;10.60;;;6.40;99.90;;;;;;5061994;28;20215;-43
2023/02/20 00:48:23;;;;;;;13.07;10.23;;;6.50;99.90;;;;;;5063284;28;20024;-43
2023/02/20 00:50:49;;;;;;;15.35;10.95;;;6.50;99.90;;;;;;5061594;28;20675;-43
2023/02/20 00:53:14;;;;;;;14.27;11.05;;;6.50;99.90;;;;;;5062685;28;20036;-42
2023/02/20 00:55:40;;;;;;;13.57;10.02;;;6.50;99.90;;;;;;5062790;28;20028;-42
2023/02/20 00:58:05;;;;;;;11.23;9.40;;;6.50;99.90;;;;;;5061056;28;20035;-43
2023/02/20 01:00:31;;;;;;;14.05;10.30;;;6.60;99.90;;;;;;5063168;28;20037;-42
2023/02/20 01:02:56;;;;;;;12.75;9.57;;;6.60;99.90;;;;;;5062480;28;20040;-42
2023/02/20 01:05:23;;;;;;;13.52;9.82;;;6.60;99.90;;;;;;5062317;28;20076;-42
2023/02/20 01:07:48;;;;;;;11.57;8.70;;;6.60;99.90;;;;;;5061482;28;20043;-42
2023/02/20 01:10:14;;;;;;;11.90;8.50;;;6.50;99.90;;;;;;5062537;28;20040;-43
2023/02/20 01:12:40;;;;;;;11.43;8.05;;;6.50;99.90;;;;;;5061730;28;20024;-43
2023/02/20 01:15:08;;;;;;;13.45;9.52;;;6.40;99.90;;;;;;5062043;28;20102;-43
2023/02/20 01:17:33;;;;;;;12.98;9.10;;;6.40;99.90;;;;;;5061348;28;20944;-43
2023/02/20 01:19:59;;;;;;;11.20;8.48;;;6.40;99.90;;;;;;5061893;28;20044;-43
2023/02/20 01:22:28;;;;;;;11.93;8.32;;;6.30;99.90;;;;;;5061741;28;20372;-44
2023/02/20 01:24:53;;;;;;;10.60;8.32;;;6.30;99.90;;;;;;5061279;28;20987;-43
2023/02/20 01:27:19;;;;;;;11.07;8.85;;;6.30;99.90;;;;;;5061957;28;20104;-43
2023/02/20 01:29:44;;;;;;;11.32;8.90;;;6.20;99.90;;;;;;5061446;28;20073;-44
2023/02/20 01:32:11;;;;;;;15.55;8.50;;;6.20;99.90;;;;;;5060759;28;20032;-43
2023/02/20 01:34:37;;;;;;;11.90;8.70;;;6.20;99.90;;;;;;5061462;28;20416;-43
2023/02/20 01:37:03;;;;;;;11.38;8.45;;;6.20;99.90;;;;;;5062005;28;20492;-43
2023/02/20 01:39:32;;;;;;;11.70;8.15;;;6.10;99.90;;;;;;5061246;28;20032;-43
2023/02/20 01:42:04;;;;;;;9.77;8.20;;;6.10;99.90;;;;;;5061440;28;20052;-43
2023/02/20 01:44:33;;;;;;;10.68;8.00;;;6.10;99.90;;;;;;5061706;28;20674;-43
2023/02/20 01:47:06;;;;;;;12.23;7.70;;;6.10;99.90;;;;;;5061139;28;20028;-43
2023/02/20 01:49:40;;;;;;;11.15;8.25;;;6.10;99.90;;;;;;5062086;28;20408;-43
2023/02/20 01:52:08;;;;;;;13.02;9.30;;;6.10;99.90;;;;;;5062163;28;20078;-43
2023/02/20 01:54:38;;;;;;;10.65;8.25;;;6.10;99.90;;;;;;5060816;28;20434;-43
2023/02/20 01:57:07;;;;;;;10.32;8.27;;;6.00;99.90;;;;;;5041753;28;20028;-43
2023/02/20 01:59:37;;;;;;;12.20;8.45;;;6.10;99.90;;;;;;5055486;28;20550;-44
2023/02/20 02:02:05;;;;;;;12.77;8.52;;;6.00;99.90;;;;;;5061845;28;20119;-44
2023/02/20 02:04:32;;;;;;;12.20;8.70;;;6.00;99.90;;;;;;5060653;28;20020;-44
2023/02/20 02:07:01;;;;;;;12.27;9.40;;;6.00;99.90;;;;;;5060483;28;20040;-43
2023/02/20 02:09:54;;;;;;;12.57;8.65;;;6.00;99.90;;;;;;5062160;28;20047;-43
2023/02/20 02:12:21;;;;;;;;;;;6.00;99.90;;;;;;5053548;28;20032;-43
2023/02/20 02:14:49;;;;;;;11.38;8.43;;;6.00;99.90;;;;;;5059933;28;19923;-43
2023/02/20 02:17:34;;;;;;;12.80;8.88;;;6.00;99.90;;;;;;5060920;28;20028;-43
2023/02/20 02:20:40;;;;;;;13.55;9.30;;;6.00;99.90;;;;;;5060716;28;20028;-43
2023/02/20 02:23:14;;;;;;;11.07;8.18;;;6.00;99.90;;;;;;5035376;28;20670;-43
2023/02/20 02:26:02;;;;;;;13.10;9.18;;;6.00;99.90;;;;;;5057768;28;20789;-43
2023/02/20 02:28:55;;;;;;;11.95;9.10;;;6.00;99.90;;;;;;5061041;28;20020;-43
2023/02/20 02:31:49;;;;;;;11.27;8.32;;;6.00;99.90;;;;;;5060839;28;20147;-43
2023/02/20 02:34:35;;;;;;;12.60;9.02;;;6.10;99.90;;;;;;5061409;28;20040;-42
2023/02/20 02:37:15;;;;;;;11.15;8.18;;;6.10;99.90;;;;;;5049193;28;20032;-42
2023/02/20 02:39:49;;;;;;;14.00;9.13;;;6.20;99.90;;;;;;5060915;28;20384;-42
2023/02/20 02:42:56;;;;;;;11.77;8.82;;;6.30;99.90;;;;;;5049539;28;20400;-42
2023/02/20 02:45:29;;;;;;;15.55;9.60;;;6.40;99.90;;;;;;5060244;28;20031;-43
2023/02/20 02:48:26;;;;;;;16.25;9.85;;;6.40;99.90;;;;;;5060228;28;20416;-43
2023/02/20 02:50:56;;;;;;;14.20;10.00;;;6.50;99.90;;;;;;5038196;28;20099;-43
2023/02/20 02:53:21;;;;;;;15.43;10.90;;;6.60;99.90;;;;;;5060680;28;20633;-42
2023/02/20 02:55:47;;;;;;;18.63;10.60;;;6.60;99.90;;;;;;5059097;28;20034;-43
2023/02/20 02:58:14;;;;;;;15.70;11.10;;;6.70;99.90;;;;;;5060794;28;20039;-42
2023/02/20 03:00:49;;;;;;;15.88;11.23;;;6.70;99.90;;;;;;5059973;28;20028;-42
2023/02/20 03:03:25;;;;;;;15.07;10.98;;;6.80;99.90;;;;;;5060276;28;20395;-42
2023/02/20 03:06:03;;;;;;;17.25;11.48;;;6.80;99.90;;;;;;5060049;28;20037;-43
2023/02/20 03:08:43;;;;;;;18.13;12.20;;;6.90;99.90;;;;;;5060960;28;20051;-43
2023/02/20 03:11:14;;;;;;;17.95;12.70;;;6.90;99.90;;;;;;5059463;28;20484;-42
2023/02/20 03:17:05;;;;;;;20.95;15.68;;;6.90;99.90;;;;;;5062292;28;20050;-43
2023/02/20 03:19:41;;;;;;;21.58;14.55;;;7.00;99.90;;;;;;5065111;28;20032;-44
2023/02/20 03:22:14;;;;;;;22.60;14.52;;;7.00;99.90;;;;;;5063943;28;20673;-44
2023/02/20 03:25:04;;;;;;;23.58;13.43;;;7.00;99.90;;;;;;5063600;28;20039;-43
2023/02/20 03:27:42;;;;;;;22.83;14.50;;;7.00;99.90;;;;;;5064198;28;20063;-43
2023/02/20 03:30:43;;;;;;;19.20;13.98;;;7.00;99.90;;;;;;5044361;28;20500;-43
2023/02/20 03:44:25;;;;;;;28.35;19.95;;;7.10;99.90;;;;;;5054022;28;20197;-43
2023/02/20 03:46:53;;;;;;;25.05;18.05;;;7.10;99.90;;;;;;5062455;28;20784;-43
2023/02/20 03:49:25;;;;;;;24.10;17.83;;;7.20;99.90;;;;;;5064345;28;20024;-42
2023/02/20 03:51:53;;;;;;;27.98;19.73;;;7.20;99.90;;;;;;5063946;28;20059;-43
2023/02/20 03:54:19;;;;;;;27.20;19.67;;;7.20;99.90;;;;;;5063246;28;20124;-43
2023/02/20 03:56:51;;;;;;;30.83;21.23;;;7.20;99.90;;;;;;5063907;28;20111;-43
2023/02/20 03:59:34;;;;;;;28.50;21.50;;;7.20;99.90;;;;;;5062633;28;20031;-44
2023/02/20 04:02:08;;;;;;;31.70;23.15;;;7.30;99.90;;;;;;5063121;28;20038;-43
2023/02/20 04:04:46;;;;;;;33.35;22.88;;;7.30;99.90;;;;;;5059976;28;20028;-42
2023/02/20 04:07:49;;;;;;;30.75;21.92;;;7.30;99.90;;;;;;5063062;28;20550;-42
2023/02/20 04:10:20;;;;;;;31.90;22.50;;;7.30;99.90;;;;;;5019794;28;20037;-42
2023/02/20 04:12:48;;;;;;;32.03;23.42;;;7.30;99.90;;;;;;5047680;28;20101;-42
2023/02/20 04:15:14;;;;;;;35.20;24.20;;;7.30;99.90;;;;;;5062586;28;20060;-43
2023/02/20 04:17:56;;;;;;;35.35;23.50;;;7.30;99.90;;;;;;5063319;28;20119;-42
2023/02/20 04:20:22;;;;;;;38.43;24.47;;;7.30;99.90;;;;;;5062813;28;20099;-43
2023/02/20 04:22:51;;;;;;;37.10;24.73;;;7.40;99.90;;;;;;5062597;28;21209;-43
2023/02/20 04:25:43;;;;;;;33.20;24.70;;;7.40;99.90;;;;;;5063724;28;20044;-43
2023/02/20 04:28:10;;;;;;;33.20;22.90;;;7.40;99.90;;;;;;5062394;28;20069;-43
2023/02/20 04:30:36;;;;;;;31.65;22.80;;;7.40;99.90;;;;;;5063295;28;20207;-43
2023/02/20 04:33:02;;;;;;;37.50;24.55;;;7.40;99.90;;;;;;5062986;28;20789;-44
2023/02/20 04:35:28;;;;;;;37.58;24.20;;;7.40;99.90;;;;;;5062953;28;20025;-43
2023/02/20 04:37:56;;;;;;;31.10;23.05;;;7.50;99.90;;;;;;5063130;28;20144;-43
2023/02/20 04:40:23;;;;;;;32.97;22.92;;;7.50;99.90;;;;;;5063454;28;20017;-43
2023/02/20 04:42:48;;;;;;;33.05;22.52;;;7.50;99.90;;;;;;5062095;28;20610;-44
2023/02/20 04:45:17;;;;;;;30.95;22.75;;;7.50;99.90;;;;;;5063266;28;20032;-43
2023/02/20 04:47:43;;;;;;;29.42;21.83;;;7.50;99.90;;;;;;5042267;28;20527;-43
2023/02/20 04:50:15;;;;;;;30.98;20.83;;;7.60;99.90;;;;;;5056061;28;20439;-43
2023/02/20 04:52:41;;;;;;;32.80;22.35;;;7.60;99.90;;;;;;5063395;28;20037;-43
2023/02/20 04:55:09;;;;;;;31.23;22.80;;;7.60;99.90;;;;;;5062479;28;20031;-44
2023/02/20 04:57:35;;;;;;;33.10;23.35;;;7.60;99.90;;;;;;5061705;28;20037;-43
2023/02/20 05:00:00;;;;;;;31.73;22.67;;;7.60;99.90;;;;;;5062065;28;20024;-43
2023/02/20 05:02:26;;;;;;;39.35;23.23;;;7.60;99.90;;;;;;5061893;28;20028;-43
2023/02/20 05:04:51;;;;;;;29.73;22.70;;;7.60;99.90;;;;;;5061306;28;20058;-43
2023/02/20 05:07:17;;;;;;;34.88;22.92;;;7.60;99.90;;;;;;5062897;28;20032;-44
2023/02/20 05:09:43;;;;;;;31.58;22.48;;;7.60;99.90;;;;;;5061335;28;20008;-43
2023/02/20 05:12:09;;;;;;;31.92;22.25;;;7.70;99.90;;;;;;5061630;28;20025;-44
2023/02/20 05:14:37;;;;;;;33.05;22.13;;;7.70;99.90;;;;;;5062379;28;20041;-43
2023/02/20 05:17:03;;;;;;;32.83;22.30;;;7.70;99.90;;;;;;5061186;28;20017;-43
2023/02/20 05:19:28;;;;;;;30.95;22.17;;;7.70;99.90;;;;;;5062102;28;20032;-43
2023/02/20 05:24:41;;;;;;;29.27;20.85;;;7.70;99.90;;;;;;5062029;28;20805;-43
2023/02/20 05:27:06;;;;;;;29.30;20.23;;;7.70;99.90;;;;;;5061752;28;20106;-43
2023/02/20 05:29:32;;;;;;;32.15;21.52;;;7.70;99.90;;;;;;5062322;28;20025;-43
2023/02/20 05:31:57;;;;;;;29.35;20.20;;;7.80;99.90;;;;;;5060954;28;20046;-43
2023/02/20 05:34:24;;;;;;;35.30;21.67;;;7.80;99.90;;;;;;5062583;28;20051;-43
2023/02/20 05:36:50;;;;;;;31.42;21.08;;;7.80;99.90;;;;;;5061210;28;20025;-44
2023/02/20 05:39:15;;;;;;;35.95;20.58;;;7.80;99.90;;;;;;5060841;28;20043;-43
2023/02/20 05:41:41;;;;;;;28.88;20.52;;;7.80;99.90;;;;;;5062016;28;20090;-43
2023/02/20 05:44:06;;;;;;;30.05;19.60;;;7.80;99.90;;;;;;5062156;28;20515;-43
2023/02/20 05:46:37;;;;;;;26.45;18.50;;;7.90;99.90;;;;;;5061190;28;20024;-43
2023/02/20 05:49:03;;;;;;;28.33;18.33;;;7.90;99.90;;;;;;5061433;28;20028;-42
2023/02/20 05:51:29;;;;;;;29.38;18.65;;;7.90;99.90;;;;;;5061509;28;20843;-43
2023/02/20 05:53:55;;;;;;;29.75;19.02;;;7.90;99.90;;;;;;5061124;28;20052;-43
2023/02/20 05:56:21;;;;;;;26.25;18.08;;;8.00;99.90;;;;;;5061954;28;20433;-43
2023/02/20 05:58:47;;;;;;;23.85;16.88;;;8.00;99.90;;;;;;5050462;28;20075;-43
2023/02/20 06:01:24;;;;;;;26.77;18.13;;;8.00;99.90;;;;;;5061261;28;20028;-43
2023/02/20 06:03:50;;;;;;;28.33;18.00;;;8.00;99.90;;;;;;5061070;28;20400;-44
2023/02/20 06:06:17;;;;;;;27.80;18.98;;;8.00;99.90;;;;;;5060251;28;20496;-43
2023/02/20 06:08:42;;;;;;;28.92;18.70;;;8.00;99.90;;;;;;5061328;28;20024;-43
2023/02/20 06:11:10;;;;;;;31.25;18.88;;;8.10;99.90;;;;;;5061241;28;20391;-43
2023/02/20 06:13:38;;;;;;;27.33;18.15;;;8.10;99.90;;;;;;5061034;28;20032;-43
2023/02/20 06:16:04;;;;;;;30.13;19.02;;;8.10;99.90;;;;;;5060219;28;20036;-43
2023/02/20 06:18:29;;;;;;;31.17;18.75;;;8.10;99.90;;;;;;5060799;28;20403;-43
2023/02/20 06:20:55;;;;;;;24.88;17.45;;;8.10;99.90;;;;;;5059988;28;20528;-43
2023/02/20 06:23:21;;;;;;;30.45;18.67;;;8.20;99.90;;;;;;5061352;28;20029;-43
2023/02/20 06:25:46;;;;;;;33.28;19.17;;;8.20;99.90;;;;;;5061363;28;20031;-43
2023/02/20 06:28:12;;;;;;;29.77;18.00;;;8.20;99.90;;;;;;5060907;28;20023;-43
2023/02/20 06:30:38;;;;;;;31.65;19.27;;;8.20;99.90;;;;;;5062059;28;20040;-43
2023/02/20 06:33:03;;;;;;;25.95;18.77;;;8.20;99.90;;;;;;5061038;28;20463;-43
2023/02/20 06:35:29;;;;;;;30.80;19.10;;;8.20;99.90;;;;;;5060466;28;20373;-42
2023/02/20 06:37:54;;;;;;;28.25;19.05;;;8.20;99.90;;;;;;5059952;28;20063;-43
2023/02/20 06:40:20;;;;;;;33.28;19.38;;;8.20;99.90;;;;;;5060764;28;20036;-43
2023/02/20 06:42:45;;;;;;;31.90;20.48;;;8.20;99.90;;;;;;5059568;28;20470;-43
2023/02/20 06:45:11;;;;;;;31.83;20.88;;;8.30;99.90;;;;;;5061141;28;20826;-42
2023/02/20 06:47:37;;;;;;;33.65;20.00;;;8.30;99.90;;;;;;5060472;28;20108;-42
2023/02/20 06:50:06;;;;;;;35.55;21.05;;;8.30;99.90;;;;;;5059215;28;20029;-42
2023/02/20 06:52:31;;;;;;;32.88;20.95;;;8.30;99.90;;;;;;5060859;28;20032;-43
2023/02/20 06:54:58;;;;;;;32.90;21.17;;;8.30;99.90;;;;;;5058935;28;20040;-43
2023/02/20 06:57:26;;;;;;;32.20;21.23;;;8.30;99.90;;;;;;5070598;28;20080;-43
2023/02/20 06:59:52;;;;;;;33.65;20.85;;;8.40;99.90;;;;;;5062724;28;20028;-43
2023/02/20 07:02:18;;;;;;;31.92;19.13;;;8.40;99.90;;;;;;5058916;28;20030;-43
2023/02/20 07:04:48;;;;;;;31.33;19.40;;;8.40;99.90;;;;;;5059055;28;20041;-42
2023/02/20 07:07:13;;;;;;;27.50;18.10;;;8.40;99.90;;;;;;5060528;28;20432;-43
2023/02/20 07:09:39;;;;;;;28.13;17.75;;;8.40;99.90;;;;;;5058805;28;20024;-43
2023/02/20 07:12:05;;;;;;;29.83;18.38;;;8.40;99.90;;;;;;5059636;28;20448;-42
2023/02/20 07:14:31;;;;;;;31.00;18.10;;;8.40;99.90;;;;;;5059492;28;20537;-42
2023/02/20 07:16:56;;;;;;;32.22;18.60;;;8.40;99.90;;;;;;5058924;28;20028;-43
2023/02/20 07:19:22;;;;;;;30.00;18.60;;;8.50;99.90;;;;;;5059674;28;20024;-42
2023/02/20 07:21:48;;;;;;;28.63;18.02;;;8.40;99.90;;;;;;5060276;28;20020;-43
2023/02/20 07:24:13;;;;;;;30.27;17.13;;;8.40;99.90;;;;;;5058962;28;20074;-43
2023/02/20 07:26:39;;;;;;;24.98;17.60;;;8.50;99.90;;;;;;5059224;28;20185;-43
2023/02/20 07:29:05;;;;;;;26.00;16.70;;;8.50;99.90;;;;;;5060164;28;20029;-42
2023/02/20 07:31:31;;;;;;;27.63;18.40;;;8.50;99.90;;;;;;5057033;28;20107;-43
2023/02/20 07:33:58;;;;;;;30.88;18.75;;;8.50;99.90;;;;;;5047958;28;20032;-43
2023/02/20 07:36:25;;;;;;;30.38;18.52;;;8.60;99.90;;;;;;5060514;28;20027;-43
2023/02/20 07:38:57;;;;;;;31.13;19.10;;;8.50;99.90;;;;;;5059155;28;20476;-43
2023/02/20 07:41:24;;;;;;;30.45;20.05;;;8.60;99.90;;;;;;5059847;28;20684;-43
2023/02/20 07:43:50;;;;;;;33.70;20.38;;;8.60;99.90;;;;;;5060442;28;20020;-43
2023/02/20 07:46:16;;;;;;;33.25;22.23;;;8.60;99.90;;;;;;5059896;28;20666;-42
2023/02/20 07:48:41;;;;;;;31.95;20.85;;;8.60;99.90;;;;;;5060221;28;20120;-44
2023/02/20 07:51:11;;;;;;;31.50;22.40;;;8.60;99.90;;;;;;5060385;28;20021;-43
2023/02/20 07:53:37;;;;;;;30.67;21.25;;;8.60;99.90;;;;;;5060155;28;20033;-43
2023/02/20 07:56:06;;;;;;;31.92;20.67;;;8.60;99.90;;;;;;5059360;28;20017;-42
2023/02/20 07:58:31;;;;;;;32.30;20.70;;;8.70;99.90;;;;;;5059767;28;20155;-42
2023/02/20 08:00:57;;;;;;;38.47;23.35;;;8.70;99.90;;;;;;5058557;28;20025;-43
2023/02/20 08:03:22;;;;;;;39.95;21.88;;;8.70;99.90;;;;;;5063110;28;20144;-43
2023/02/20 08:05:48;;;;;;;37.53;22.92;;;8.70;99.90;;;;;;5062574;28;20048;-42
2023/02/20 08:08:23;;;;;;;33.78;21.58;;;8.70;99.90;;;;;;5063441;28;20036;-42
2023/02/20 08:10:48;;;;;;;30.63;21.48;;;8.70;99.90;;;;;;5062826;28;20024;-42
2023/02/20 08:13:14;;;;;;;29.83;20.60;;;8.70;99.90;;;;;;5062637;28;20040;-42
2023/02/20 08:15:40;;;;;;;34.22;22.13;;;8.80;99.90;;;;;;5062705;28;20059;-42
2023/02/20 08:18:06;;;;;;;35.85;23.10;;;8.80;99.90;;;;;;5063247;28;20028;-43
2023/02/20 08:20:31;;;;;;;36.47;23.67;;;8.80;99.90;;;;;;5063737;28;20039;-43
2023/02/20 08:22:59;;;;;;;30.67;22.65;;;8.80;99.90;;;;;;5062572;28;20063;-43
2023/02/20 08:25:25;;;;;;;32.25;21.25;;;8.80;99.90;;;;;;5063319;28;20104;-43
2023/02/20 08:27:51;;;;;;;33.65;22.35;;;8.80;99.90;;;;;;5062410;28;20028;-42
2023/02/20 08:30:23;;;;;;;36.53;22.45;;;8.90;99.90;;;;;;5063900;28;20769;-42
2023/02/20 08:32:50;;;;;;;31.63;21.00;;;8.90;99.90;;;;;;5062346;28;20070;-42
2023/02/20 08:35:16;;;;;;;26.42;20.20;;;8.90;99.90;;;;;;5062733;28;20032;-42
2023/02/20 08:37:41;;;;;;;31.63;21.10;;;8.90;99.90;;;;;;5062228;28;20040;-42
2023/02/20 08:40:08;;;;;;;29.02;21.10;;;8.90;99.90;;;;;;5062905;28;20059;-42
2023/02/20 08:42:34;;;;;;;30.52;19.73;;;9.00;99.90;;;;;;5061772;28;20074;-43
2023/02/20 08:45:00;;;;;;;29.80;20.00;;;9.00;99.90;;;;;;5062695;28;20021;-44
2023/02/20 08:47:26;;;;;;;27.92;18.17;;;9.00;99.90;;;;;;5062687;28;20021;-43
2023/02/20 08:49:51;;;;;;;26.75;19.15;;;9.10;99.90;;;;;;5061392;28;20043;-43
2023/02/20 08:52:18;;;;;;;30.48;20.45;;;9.10;99.90;;;;;;5061827;28;20098;-42
2023/02/20 08:54:45;;;;;;;31.63;20.35;;;9.10;99.90;;;;;;5061592;28;20102;-44
2023/02/20 08:57:11;;;;;;;27.42;19.33;;;9.10;99.90;;;;;;5060980;28;20028;-43
2023/02/20 08:59:38;;;;;;;30.80;18.85;;;9.20;99.90;;;;;;5062420;28;20108;-43
2023/02/20 09:02:07;;;;;;;24.52;18.05;;;9.20;99.90;;;;;;5061524;28;20020;-43
2023/02/20 09:04:33;;;;;;;24.42;17.33;;;9.30;99.90;;;;;;5058847;28;20094;-43
2023/02/20 09:07:00;;;;;;;25.35;17.83;;;9.30;99.90;;;;;;5061949;28;20085;-42
2023/02/20 09:09:25;;;;;;;22.90;15.65;;;9.40;99.90;;;;;;5060537;28;20024;-42
2023/02/20 09:11:54;;;;;;;28.17;17.38;;;9.40;99.90;;;;;;5061076;28;20132;-43
2023/02/20 09:14:19;;;;;;;28.60;18.10;;;9.50;99.90;;;;;;5061542;28;20042;-43
2023/02/20 09:16:45;;;;;;;24.05;16.45;;;9.50;99.90;;;;;;5061281;28;21056;-43
2023/02/20 09:19:12;;;;;;;25.02;17.88;;;9.50;99.90;;;;;;5061696;28;20484;-43
2023/02/20 09:21:38;;;;;;;23.85;16.70;;;9.50;99.90;;;;;;5061495;28;20047;-43
2023/02/20 09:24:05;;;;;;;25.02;16.60;;;9.50;99.90;;;;;;5061077;28;20784;-43
2023/02/20 09:26:33;;;;;;;27.08;15.80;;;9.50;99.90;;;;;;5061148;28;20123;-43
2023/02/20 09:28:59;;;;;;;25.05;15.77;;;9.50;99.90;;;;;;5060407;28;20024;-43
2023/02/20 09:31:24;;;;;;;20.17;14.93;;;9.50;99.90;;;;;;5061008;28;20032;-43
2023/02/20 09:33:53;;;;;;;25.70;15.45;;;9.60;99.90;;;;;;5060711;28;20787;-43
2023/02/20 09:36:19;;;;;;;22.35;13.48;;;9.60;99.90;;;;;;5061659;28;20082;-44
2023/02/20 09:38:44;;;;;;;24.25;14.23;;;9.60;99.90;;;;;;5060126;28;20847;-42
2023/02/20 09:41:24;;;;;;;19.20;12.70;;;9.60;99.90;;;;;;5061083;28;20055;-42
2023/02/20 09:44:00;;;;;;;23.13;13.82;;;9.60;99.90;;;;;;5059998;28;20473;-42
2023/02/20 09:46:29;;;;;;;23.60;13.35;;;9.60;99.90;;;;;;5050890;28;20940;-42
2023/02/20 09:49:06;;;;;;;23.98;13.00;;;9.60;99.90;;;;;;5060577;28;20029;-43
2023/02/20 09:51:39;;;;;;;24.05;14.23;;;9.60;99.90;;;;;;5049618;28;20040;-44
2023/02/20 09:54:06;;;;;;;;;;;9.60;99.90;;;;;;5061419;28;20078;-44
2023/02/20 09:56:36;;;;;;;23.38;12.90;;;9.60;99.90;;;;;;5061962;28;19919;-44
2023/02/20 09:59:06;;;;;;;21.35;12.60;;;9.50;99.90;;;;;;5061024;28;20024;-43
2023/02/20 10:01:34;;;;;;;18.48;12.63;;;9.50;99.90;;;;;;5060256;28;20041;-43
2023/02/20 10:04:12;;;;;;;24.02;13.68;;;9.50;99.90;;;;;;5051999;28;20025;-43
2023/02/20 10:06:38;;;;;;;26.17;13.27;;;9.50;99.90;;;;;;5056303;28;20088;-43
2023/02/20 10:09:09;;;;;;;17.20;11.02;;;9.50;99.90;;;;;;5060557;28;20132;-43
2023/02/20 10:11:59;;;;;;;23.38;11.95;;;9.50;99.90;;;;;;5060375;28;20025;-43
2023/02/20 10:14:35;;;;;;;20.27;11.57;;;9.50;99.90;;;;;;5060881;28;20060;-43
2023/02/20 10:17:20;;;;;;;21.25;12.30;;;9.50;99.90;;;;;;5056935;28;20073;-43
2023/02/20 10:19:54;;;;;;;17.55;11.43;;;9.50;99.90;;;;;;5058935;28;20028;-43
2023/02/20 10:22:32;;;;;;;18.60;10.68;;;9.50;99.90;;;;;;5060364;28;20305;-43
2023/02/20 10:25:22;;;;;;;18.90;9.40;;;9.50;99.90;;;;;;5059383;28;20135;-43
2023/02/20 10:28:24;;;;;;;19.13;8.57;;;9.50;99.90;;;;;;5047023;28;20622;-44
2023/02/20 10:31:20;;;;;;;15.70;8.03;;;9.50;99.90;;;;;;5023737;28;20045;-42
2023/02/20 10:33:51;;;;;;;15.23;7.18;;;9.50;99.90;;;;;;5054905;28;20040;-42
2023/02/20 10:36:25;;;;;;;16.00;7.45;;;9.50;99.90;;;;;;5059951;28;20094;-42
2023/02/20 10:38:55;;;;;;;14.70;6.53;;;9.50;99.90;;;;;;5053769;28;20024;-43
2023/02/20 10:41:55;;;;;;;15.05;6.72;;;9.60;99.90;;;;;;5049861;28;20032;-42
2023/02/20 10:44:27;;;;;;;15.55;7.93;;;9.60;99.90;;;;;;5052972;28;20025;-43
2023/02/20 10:47:21;;;;;;;15.33;7.37;;;9.60;99.90;;;;;;5059224;28;20028;-44
2023/02/20 10:50:01;;;;;;;14.77;7.00;;;9.60;99.90;;;;;;5057395;28;20033;-44
2023/02/20 10:52:34;;;;;;;12.70;6.75;;;9.60;99.90;;;;;;5059233;28;20030;-43
2023/02/20 10:55:05;;;;;;;17.95;6.78;;;9.60;99.90;;;;;;5043795;28;20047;-43
2023/02/20 10:57:47;;;;;;;14.90;8.23;;;9.60;99.90;;;;;;5059311;28;20376;-42
2023/02/20 11:00:21;;;;;;;15.57;9.73;;;9.70;99.90;;;;;;5041117;28;20040;-43
2023/02/20 11:02:56;;;;;;;21.60;10.23;;;9.70;99.90;;;;;;5054629;28;20063;-43
2023/02/20 11:05:26;;;;;;;21.33;11.50;;;9.70;99.90;;;;;;5051683;28;20047;-44
2023/02/20 11:07:51;;;;;;;18.95;12.07;;;9.70;99.90;;;;;;5060172;28;20029;-42
2023/02/20 11:10:17;;;;;;;17.95;10.20;;;9.70;99.90;;;;;;5059977;28;20021;-43
2023/02/20 11:13:04;;;;;;;15.68;8.88;;;9.70;99.90;;;;;;5059472;28;20404;-42
2023/02/20 11:15:33;;;;;;;11.35;7.63;;;9.70;99.90;;;;;;5049202;28;20049;-42
2023/02/20 11:17:59;;;;;;;15.52;8.27;;;9.70;99.90;;;;;;5059356;28;20025;-43
2023/02/20 11:20:31;;;;;;;14.82;6.75;;;9.80;99.90;;;;;;5059910;28;20032;-43
2023/02/20 11:22:57;;;;;;;14.05;7.10;;;9.80;99.90;;;;;;5058687;28;20095;-43
2023/02/20 11:25:29;;;;;;;17.98;7.93;;;9.80;99.90;;;;;;5060208;28;20484;-43
2023/02/20 11:28:12;;;;;;;12.85;7.03;;;9.80;99.90;;;;;;5059410;28;20020;-42
2023/02/20 11:30:40;;;;;;;10.55;6.93;;;9.80;99.90;;;;;;5058926;28;20028;-43
2023/02/20 11:33:21;;;;;;;16.65;7.93;;;9.90;99.90;;;;;;5059403;28;20032;-43
2023/02/20 11:35:50;;;;;;;15.20;6.80;;;9.90;99.90;;;;;;5059629;28;20047;-43
2023/02/20 11:38:25;;;;;;;10.73;6.05;;;9.90;99.90;;;;;;5063337;28;20024;-43
2023/02/20 11:40:59;;;;;;;10.52;5.80;;;9.90;99.90;;;;;;5062940;28;20060;-42
2023/02/20 11:43:27;;;;;;;11.85;5.85;;;9.90;99.90;;;;;;5063100;28;20047;-42
2023/02/20 11:46:16;;;;;;;10.75;5.95;;;9.90;99.90;;;;;;5076862;28;20036;-42
2023/02/20 11:48:57;;;;;;;9.43;5.78;;;10.00;99.90;;;;;;5069111;28;20026;-44
2023/02/20 11:51:40;;;;;;;8.80;5.85;;;9.90;99.90;;;;;;5063354;28;20029;-41
2023/02/20 11:54:23;;;;;;;12.80;5.70;;;10.00;99.90;;;;;;5062713;28;20040;-43
2023/02/20 11:56:57;;;;;;;10.02;5.53;;;9.90;99.90;;;;;;5062595;28;20063;-42
2023/02/20 11:59:33;;;;;;;12.55;5.70;;;10.00;99.90;;;;;;5062962;28;20036;-43
2023/02/20 12:02:16;;;;;;;8.98;5.50;;;10.00;99.90;;;;;;5063139;28;20051;-43
2023/02/20 12:05:04;;;;;;;9.25;5.93;;;10.00;99.90;;;;;;5058700;28;20036;-43
2023/02/20 12:07:37;;;;;;;12.77;5.97;;;10.00;99.90;;;;;;5043827;28;20033;-43
2023/02/20 12:10:32;;;;;;;11.23;6.03;;;10.00;99.90;;;;;;5059674;28;20040;-43
2023/02/20 12:12:58;;;;;;;8.90;5.32;;;10.00;99.90;;;;;;5042626;28;20021;-43
2023/02/20 12:15:27;;;;;;;8.30;5.60;;;10.00;99.90;;;;;;5059972;28;20936;-43
2023/02/20 12:18:20;;;;;;;8.43;5.10;;;10.00;99.90;;;;;;5062226;28;20048;-43
2023/02/20 12:21:18;;;;;;;9.32;5.28;;;10.10;99.90;;;;;;5062283;28;20035;-44
2023/02/20 12:23:56;;;;;;;9.85;5.25;;;10.10;99.90;;;;;;5062953;28;20029;-43
2023/02/20 12:26:43;;;;;;;11.88;5.88;;;10.00;99.90;;;;;;5060012;28;20029;-43
2023/02/20 12:29:47;;;;;;;10.20;4.85;;;10.00;99.90;;;;;;5063132;28;20024;-43
2023/02/20 12:32:28;;;;;;;8.30;4.55;;;10.00;99.90;;;;;;5054521;28;20103;-43
2023/02/20 12:35:12;;;;;;;6.82;4.22;;;10.00;99.90;;;;;;5062170;28;20048;-42
2023/02/20 12:38:15;;;;;;;8.50;4.93;;;10.10;99.90;;;;;;5062614;28;20078;-43
2023/02/20 12:40:47;;;;;;;;;;;10.10;99.90;;;;;;5062068;28;20036;-42
2023/02/20 12:43:29;;;;;;;8.50;4.40;;;10.10;99.90;;;;;;5062726;28;19987;-43
2023/02/20 12:46:19;;;;;;;6.88;4.53;;;10.10;99.90;;;;;;5061763;28;20048;-42
2023/02/20 12:49:34;;;;;;;6.20;4.00;;;10.10;99.90;;;;;;5041741;28;20774;-43
2023/02/20 12:52:30;;;;;;;7.43;4.38;;;10.10;99.90;;;;;;5061330;28;20082;-43
2023/02/20 12:55:31;;;;;;;7.55;4.03;;;10.10;99.90;;;;;;5061267;28;20037;-43
2023/02/20 12:58:18;;;;;;;6.55;4.43;;;10.20;99.90;;;;;;5052480;28;20024;-42
2023/02/20 13:00:49;;;;;;;5.78;4.07;;;10.20;99.90;;;;;;5062154;28;20036;-42
2023/02/20 13:03:34;;;;;;;7.50;4.28;;;10.20;99.90;;;;;;5063623;28;20040;-43
2023/02/20 13:06:03;;;;;;;11.63;5.22;;;10.20;99.90;;;;;;5061860;28;20052;-42
2023/02/20 13:08:34;;;;;;;9.07;4.25;;;10.20;99.90;;;;;;5061844;28;20020;-46
2023/02/20 13:11:04;;;;;;;9.98;4.97;;;10.20;99.90;;;;;;5062422;28;20093;-43
2023/02/20 13:14:05;;;;;;;5.95;3.85;;;10.30;99.90;;;;;;5062181;28;20040;-43
2023/02/20 13:16:59;;;;;;;6.68;3.95;;;10.20;99.90;;;;;;5061250;28;20028;-43
2023/02/20 13:19:27;;;;;;;6.55;3.45;;;10.30;99.90;;;;;;5061982;28;20068;-43
2023/02/20 13:21:55;;;;;;;6.70;3.33;;;10.30;99.90;;;;;;5060936;28;20029;-43